Time;durP1;ratioP1;P1;durP2;ratioP2;P2;SDS_P1;SDS_P2;PMS_P1;PMS_P2;Temp;Humidity;BMP_temperature;BMP_pressure;BME280_temperature;BME280_humidity;BME280_pressure;Samples;Min_cycle;Max_cycle;Signal;HPM_P1;HPM_P2
2024/02/20 00:00:36;;;;;;;3.00;1.20;;;;;;;5.78;100.00;101098.02;103726;1297;22617;-61
2024/02/20 00:03:01;;;;;;;4.90;1.50;;;;;;;5.77;100.00;101098.19;103751;1299;23699;-58
2024/02/20 00:05:27;;;;;;;5.50;2.10;;;;;;;5.78;100.00;101094.42;103724;1288;22585;-58
2024/02/20 00:07:55;;;;;;;9.90;2.60;;;;;;;5.78;100.00;101094.08;103526;1310;22562;-60
2024/02/20 00:10:21;;;;;;;3.80;1.90;;;;;;;5.77;100.00;101091.34;103909;1305;23021;-58
2024/02/20 00:12:47;;;;;;;5.10;2.30;;;;;;;5.77;100.00;101092.88;103649;1310;22775;-58
2024/02/20 00:15:13;;;;;;;4.80;2.50;;;;;;;5.77;100.00;101093.05;103944;1303;22680;-57
2024/02/20 00:17:39;;;;;;;6.90;1.90;;;;;;;5.76;100.00;101096.11;103931;1304;22562;-58
2024/02/20 00:20:06;;;;;;;5.20;1.80;;;;;;;5.74;100.00;101097.63;103835;1291;26401;-57
2024/02/20 00:22:32;;;;;;;5.30;1.60;;;;;;;5.73;100.00;101096.42;103871;1310;22698;-58
2024/02/20 00:24:58;;;;;;;4.30;1.80;;;;;;;5.71;100.00;101096.26;103832;1308;22661;-59
2024/02/20 00:27:23;;;;;;;6.00;2.00;;;;;;;5.71;100.00;101100.54;103883;1304;25338;-58
2024/02/20 00:29:49;;;;;;;6.30;2.30;;;;;;;5.71;100.00;101101.55;103838;1292;22585;-56
2024/02/20 00:32:17;;;;;;;6.20;2.60;;;;;;;5.71;100.00;101103.61;103867;1310;22574;-57
2024/02/20 00:34:43;;;;;;;4.70;2.60;;;;;;;5.69;100.00;101108.73;107352;1308;22259;-59
2024/02/20 00:37:09;;;;;;;8.20;1.70;;;;;;;5.68;100.00;101112.13;107375;1305;22405;-58
2024/02/20 00:39:35;;;;;;;3.80;1.50;;;;;;;5.68;100.00;101113.48;104598;1287;25378;-58
2024/02/20 00:42:03;;;;;;;5.20;1.70;;;;;;;5.69;100.00;101110.26;101553;1310;5003999;-59
2024/02/20 00:44:29;;;;;;;5.10;1.40;;;;;;;5.68;100.00;101108.55;104708;1305;24285;-58
2024/02/20 00:46:54;;;;;;;5.80;1.50;;;;;;;5.69;100.00;101110.44;103811;1305;23377;-59
2024/02/20 00:49:20;;;;;;;1.50;0.80;;;;;;;5.71;100.00;101107.88;103755;1292;22805;-59
2024/02/20 00:51:46;;;;;;;6.30;1.00;;;;;;;5.71;100.00;101107.89;103963;1295;22660;-58
2024/02/20 00:54:11;;;;;;;2.40;0.80;;;;;;;5.71;100.00;101101.55;103929;1305;22667;-57
2024/02/20 00:56:37;;;;;;;4.60;1.20;;;;;;;5.73;100.00;101100.18;103971;1310;22582;-59
2024/02/20 00:59:02;;;;;;;2.40;0.80;;;;;;;5.72;100.00;101103.95;103874;1310;22697;-58
2024/02/20 01:01:28;;;;;;;5.30;1.20;;;;;;;5.71;100.00;101101.05;103832;1292;22572;-58
2024/02/20 01:03:54;;;;;;;4.60;0.80;;;;;;;5.71;100.00;101103.95;103726;1303;23009;-57
2024/02/20 01:06:19;;;;;;;5.20;0.80;;;;;;;5.71;100.00;101101.39;103568;1306;26190;-63
2024/02/20 01:08:45;;;;;;;4.20;1.50;;;;;;;5.73;100.00;101097.27;103800;1304;22561;-60
2024/02/20 01:11:10;;;;;;;3.50;0.90;;;;;;;5.73;100.00;101096.08;103825;1310;22588;-58
2024/02/20 01:13:36;;;;;;;4.30;0.70;;;;;;;5.74;100.00;101089.76;103914;1310;23052;-60
2024/02/20 01:16:01;;;;;;;5.00;1.10;;;;;;;5.73;100.00;101088.72;103934;1308;22558;-58
2024/02/20 01:18:27;;;;;;;3.00;0.80;;;;;;;5.74;100.00;101089.77;103865;1310;23599;-58
2024/02/20 01:20:53;;;;;;;5.30;1.00;;;;;;;5.73;100.00;101093.52;103788;1290;22699;-59
2024/02/20 01:23:18;;;;;;;3.60;0.90;;;;;;;5.71;100.00;101091.64;103746;1307;69146;-59
2024/02/20 01:25:44;;;;;;;2.40;0.80;;;;;;;5.71;100.00;101094.20;103821;1288;25504;-58
2024/02/20 01:28:10;;;;;;;3.40;0.70;;;;;;;5.73;100.00;101093.17;103568;1310;24311;-59
2024/02/20 01:30:36;;;;;;;2.40;0.60;;;;;;;5.72;100.00;101094.71;103640;1302;25751;-58
2024/02/20 01:33:02;;;;;;;4.10;0.50;;;;;;;5.70;100.00;101086.84;103938;1289;26682;-58
2024/02/20 01:35:28;;;;;;;2.20;0.90;;;;;;;5.70;100.00;101088.37;103946;1304;22616;-58
2024/02/20 01:37:53;;;;;;;2.60;1.60;;;;;;;5.69;100.00;101086.48;103859;1304;25519;-57
2024/02/20 01:40:19;;;;;;;4.00;1.10;;;;;;;5.71;100.00;101085.83;103928;1307;26726;-58
2024/02/20 01:42:59;;;;;;;3.10;0.30;;;;;;;5.70;100.00;101085.98;103603;1310;23072;-58
2024/02/20 01:45:28;;;;;;;1.90;0.60;;;;;;;5.70;100.00;101085.98;103549;1309;22572;-57
2024/02/20 01:47:56;;;;;;;2.70;0.50;;;;;;;5.70;100.00;101085.98;103789;1303;22567;-59
2024/02/20 01:50:23;;;;;;;1.60;0.60;;;;;;;5.72;100.00;101079.67;103905;1302;22656;-58
2024/02/20 01:52:48;;;;;;;3.10;0.60;;;;;;;5.73;100.00;101082.23;103926;1298;24117;-58
2024/02/20 01:55:16;;;;;;;2.90;0.70;;;;;;;5.75;100.00;101083.44;103943;1304;23968;-59
2024/02/20 01:57:43;;;;;;;1.30;0.50;;;;;;;5.77;100.00;101081.25;103919;1310;24285;-57
2024/02/20 02:00:08;;;;;;;;;;;;;;;5.78;100.00;101081.43;103999;1301;24385;-58
2024/02/20 02:02:34;;;;;;;2.70;0.50;;;;;;;5.78;100.00;101083.30;103736;1292;22552;-58
2024/02/20 02:05:00;;;;;;;1.20;0.40;;;;;;;5.78;100.00;101082.80;103834;1307;22580;-57
2024/02/20 02:07:25;;;;;;;2.70;0.60;;;;;;;5.79;100.00;101084.86;103800;1309;25274;-60
2024/02/20 02:09:51;;;;;;;2.40;0.90;;;;;;;5.81;100.00;101086.26;103766;1309;25735;-58
2024/02/20 02:12:17;;;;;;;1.40;0.80;;;;;;;5.82;100.00;101085.41;103556;1311;24297;-58
2024/02/20 02:14:45;;;;;;;3.80;0.90;;;;;;;5.82;100.00;101085.06;103813;1304;22559;-58
2024/02/20 02:17:12;;;;;;;3.10;0.90;;;;;;;5.84;100.00;101089.70;103987;1302;22774;-58
2024/02/20 02:19:38;;;;;;;1.70;1.10;;;;;;;5.86;100.00;101086.81;103825;1311;24277;-57
2024/02/20 02:22:04;;;;;;;3.00;1.00;;;;;;;5.86;100.00;101086.99;103797;1301;22568;-56
2024/02/20 02:24:30;;;;;;;4.00;1.40;;;;;;;5.85;100.00;101089.03;103957;1311;22587;-58
2024/02/20 02:26:55;;;;;;;3.60;1.20;;;;;;;5.85;100.00;101089.20;103714;1310;22565;-59
2024/02/20 02:29:21;;;;;;;2.20;1.40;;;;;;;5.85;100.00;101088.52;103941;1295;22562;-58
2024/02/20 02:31:46;;;;;;;4.80;1.70;;;;;;;5.89;100.00;101089.98;103917;1287;22565;-60
2024/02/20 02:34:12;;;;;;;4.20;1.50;;;;;;;5.89;100.00;101090.13;103960;1308;24289;-58
2024/02/20 02:36:38;;;;;;;3.10;1.60;;;;;;;5.90;100.00;101091.69;103946;1308;22597;-57
2024/02/20 02:39:03;;;;;;;3.50;1.70;;;;;;;5.91;100.00;101093.06;103731;1306;22601;-57
2024/02/20 02:41:30;;;;;;;2.20;1.40;;;;;;;5.92;100.00;101091.71;103901;1300;22882;-58
2024/02/20 02:43:56;;;;;;;3.40;1.30;;;;;;;5.94;100.00;101084.71;103594;1301;22608;-58
2024/02/20 02:46:21;;;;;;;4.00;1.30;;;;;;;5.93;100.00;101085.21;103777;1304;22560;-59
2024/02/20 02:48:49;;;;;;;4.30;0.90;;;;;;;5.92;100.00;101084.02;103913;1310;25415;-59
2024/02/20 02:51:15;;;;;;;3.20;1.40;;;;;;;5.95;100.00;101082.15;99778;1305;5003099;-59
2024/02/20 02:53:41;;;;;;;2.30;1.10;;;;;;;5.95;100.00;101082.84;103796;1310;22572;-59
2024/02/20 02:56:14;;;;;;;2.90;1.20;;;;;;;5.94;100.00;101081.30;103819;1289;22600;-61
2024/02/20 02:58:40;;;;;;;2.60;1.10;;;;;;;5.95;100.00;101071.21;103893;1304;22587;-58
2024/02/20 03:01:09;;;;;;;5.60;2.10;;;;;;;5.93;100.00;101073.59;103625;1310;22900;-59
2024/02/20 03:03:36;;;;;;;2.00;0.90;;;;;;;5.88;100.00;101072.66;103696;1295;22671;-59
2024/02/20 03:06:08;;;;;;;4.70;1.20;;;;;;;5.85;100.00;101066.28;107376;1311;22933;-60
2024/02/20 03:08:38;;;;;;;2.60;1.20;;;;;;;5.83;100.00;101063.34;107406;1298;22390;-58
2024/02/20 03:11:05;;;;;;;5.30;1.40;;;;;;;5.83;100.00;101071.73;107409;1302;22853;-60
2024/02/20 03:13:34;;;;;;;1.40;1.30;;;;;;;5.82;100.00;101071.04;104545;1310;25370;-59
2024/02/20 03:16:01;;;;;;;2.00;1.40;;;;;;;5.84;100.00;101072.60;103833;1310;26670;-58
2024/02/20 03:18:29;;;;;;;4.10;1.50;;;;;;;5.83;100.00;101072.77;103703;1301;22582;-59
2024/02/20 03:20:54;;;;;;;4.20;1.50;;;;;;;5.84;100.00;101071.41;107325;1304;22997;-59
2024/02/20 03:23:20;;;;;;;3.60;1.60;;;;;;;5.85;100.00;101073.46;104504;1303;22602;-55
2024/02/20 03:25:46;;;;;;;4.90;2.20;;;;;;;5.88;100.00;101075.73;103912;1302;25337;-57
2024/02/20 03:28:13;;;;;;;2.80;2.00;;;;;;;5.88;100.00;101069.55;103964;1310;22611;-57
2024/02/20 03:30:40;;;;;;;5.50;2.60;;;;;;;5.89;100.00;101066.17;103933;1310;22823;-58
2024/02/20 03:33:06;;;;;;;6.80;3.10;;;;;;;5.87;100.00;101054.16;106894;1291;22568;-57
2024/02/20 03:35:32;;;;;;;5.20;2.40;;;;;;;5.86;100.00;101057.21;103949;1304;22836;-59
2024/02/20 03:37:58;;;;;;;4.80;2.80;;;;;;;5.86;100.00;101064.74;103899;1310;24218;-65
2024/02/20 03:40:23;;;;;;;7.40;2.40;;;;;;;5.85;100.00;101068.50;103868;1310;22979;-58
2024/02/20 03:42:49;;;;;;;2.90;2.00;;;;;;;5.84;100.00;101076.36;103851;1289;25423;-57
2024/02/20 03:45:14;;;;;;;6.90;2.70;;;;;;;5.85;100.00;101077.40;104003;1295;22793;-58
2024/02/20 03:47:40;;;;;;;6.30;2.40;;;;;;;5.84;100.00;101079.27;103952;1310;25293;-60
2024/02/20 03:50:06;;;;;;;7.90;2.20;;;;;;;5.87;100.00;101081.02;103904;1306;25414;-57
2024/02/20 03:52:32;;;;;;;9.20;2.50;;;;;;;5.88;100.00;101082.05;103849;1292;22949;-59
2024/02/20 03:54:57;;;;;;;5.10;1.90;;;;;;;5.89;100.00;101082.41;103871;1310;22652;-58
2024/02/20 03:57:22;;;;;;;2.70;1.50;;;;;;;5.89;100.00;101078.31;103924;1302;22648;-56
2024/02/20 03:59:48;;;;;;;3.90;1.90;;;;;;;5.89;100.00;101083.30;103884;1310;25708;-57
2024/02/20 04:02:13;;;;;;;2.90;2.10;;;;;;;5.91;100.00;101078.69;103589;1310;24370;-59
2024/02/20 04:04:39;;;;;;;5.00;2.20;;;;;;;5.92;100.00;101077.69;103880;1291;23917;-59
2024/02/20 04:07:04;;;;;;;5.20;2.60;;;;;;;5.91;100.00;101073.73;103886;1306;22568;-57
2024/02/20 04:09:30;;;;;;;8.00;2.40;;;;;;;5.90;100.00;101076.12;103821;1310;23087;-57
2024/02/20 04:11:56;;;;;;;10.00;2.70;;;;;;;5.90;100.00;101079.71;103894;1310;22538;-59
2024/02/20 04:14:22;;;;;;;5.10;2.60;;;;;;;5.91;100.00;101080.73;103912;1291;24362;-60
2024/02/20 04:16:47;;;;;;;5.50;2.10;;;;;;;5.89;100.00;101082.09;103907;1310;24063;-57
2024/02/20 04:19:13;;;;;;;4.70;2.60;;;;;;;5.89;100.00;101085.15;103883;1305;25371;-59
2024/02/20 04:21:38;;;;;;;8.10;3.20;;;;;;;5.89;100.00;101083.97;103681;1311;25648;-58
2024/02/20 04:24:06;;;;;;;9.50;3.50;;;;;;;5.89;100.00;101093.05;103869;1307;26734;-58
2024/02/20 04:26:31;;;;;;;7.50;3.60;;;;;;;5.90;100.00;101090.66;103689;1310;22583;-58
2024/02/20 04:28:57;;;;;;;8.80;3.50;;;;;;;5.90;100.00;101093.92;103654;1311;22593;-59
2024/02/20 04:31:22;;;;;;;4.70;3.20;;;;;;;5.90;100.00;101095.96;103825;1302;24235;-57
2024/02/20 04:33:48;;;;;;;6.60;3.10;;;;;;;5.90;100.00;101098.53;96685;1289;10003929;-58
2024/02/20 04:36:15;;;;;;;7.90;4.10;;;;;;;5.90;100.00;101099.39;103918;1310;22898;-59
2024/02/20 04:38:40;;;;;;;;;;;;;;;5.91;100.00;101101.46;103934;1308;24509;-58
2024/02/20 04:41:07;;;;;;;7.40;3.50;;;;;;;5.93;100.00;101104.73;103861;1305;25314;-59
2024/02/20 04:43:33;;;;;;;;;;;;;;;5.97;100.00;101102.72;103736;1308;26734;-58
2024/02/20 04:45:59;;;;;;;11.10;5.00;;;;;;;5.98;100.00;101104.61;103897;1291;25344;-59
2024/02/20 04:48:25;;;;;;;9.40;5.00;;;;;;;6.00;100.00;101102.75;103831;1310;24483;-58
2024/02/20 04:50:50;;;;;;;10.90;4.30;;;;;;;6.01;100.00;101102.59;103740;1310;23097;-58
2024/02/20 04:53:16;;;;;;;9.60;4.30;;;;;;;6.02;100.00;101101.23;103784;1310;22577;-57
2024/02/20 04:55:41;;;;;;;7.90;4.50;;;;;;;6.03;100.00;101104.65;103856;1292;25262;-59
2024/02/20 04:58:07;;;;;;;7.90;3.90;;;;;;;6.03;100.00;101106.71;103646;1310;25535;-60
2024/02/20 05:00:33;;;;;;;7.70;4.20;;;;;;;6.05;100.00;101102.11;103899;1310;24117;-58
2024/02/20 05:02:59;;;;;;;7.10;5.40;;;;;;;6.06;100.00;101104.69;103893;1310;23116;-58
2024/02/20 05:05:24;;;;;;;11.20;3.60;;;;;;;6.07;100.00;101106.92;103774;1302;23728;-57
2024/02/20 05:07:50;;;;;;;10.30;4.10;;;;;;;6.09;100.00;101109.00;103945;1305;22577;-57
2024/02/20 05:10:15;;;;;;;8.10;3.80;;;;;;;6.09;100.00;101111.73;103850;1310;24240;-57
2024/02/20 05:12:44;;;;;;;13.30;4.00;;;;;;;6.09;100.00;101112.60;103879;1305;23044;-58
2024/02/20 05:15:10;;;;;;;6.10;4.00;;;;;;;6.11;100.00;101115.52;103904;1292;23376;-58
2024/02/20 05:17:36;;;;;;;10.60;4.50;;;;;;;6.09;100.00;101112.77;106056;1305;22572;-59
2024/02/20 05:20:01;;;;;;;7.30;4.20;;;;;;;6.09;100.00;101116.35;103900;1305;22558;-57
2024/02/20 05:22:30;;;;;;;8.60;4.10;;;;;;;6.09;100.00;101119.95;103782;1304;23869;-57
2024/02/20 05:24:55;;;;;;;12.10;4.00;;;;;;;6.10;100.00;101125.27;103913;1289;22572;-58
2024/02/20 05:27:21;;;;;;;10.30;3.80;;;;;;;6.09;100.00;101124.23;103928;1310;22585;-58
2024/02/20 05:29:46;;;;;;;10.70;4.30;;;;;;;6.08;100.00;101120.11;103838;1310;22689;-57
2024/02/20 05:32:12;;;;;;;13.00;4.50;;;;;;;6.07;100.00;101123.35;103888;1295;25418;-57
2024/02/20 05:34:38;;;;;;;16.30;5.70;;;;;;;6.07;100.00;101128.83;103906;1310;22692;-58
2024/02/20 05:37:03;;;;;;;13.00;3.50;;;;;;;6.07;100.00;101125.23;103901;1304;25336;-57
2024/02/20 05:39:29;;;;;;;11.80;4.10;;;;;;;6.08;100.00;101127.13;103709;1310;25607;-59
2024/02/20 05:41:56;;;;;;;8.10;3.50;;;;;;;6.07;100.00;101126.27;103779;1304;22671;-57
2024/02/20 05:44:22;;;;;;;7.20;3.90;;;;;;;6.08;100.00;101128.16;103863;1310;22694;-58
2024/02/20 05:46:47;;;;;;;7.00;3.70;;;;;;;6.08;100.00;101129.86;103936;1292;27411;-57
2024/02/20 05:49:13;;;;;;;6.00;3.60;;;;;;;6.08;100.00;101132.78;103852;1308;23265;-58
2024/02/20 05:51:38;;;;;;;9.40;3.70;;;;;;;6.08;100.00;101139.45;103875;1310;23172;-59
2024/02/20 05:54:05;;;;;;;7.10;4.20;;;;;;;6.09;100.00;101137.76;103989;1310;24279;-58
2024/02/20 05:56:36;;;;;;;7.00;3.70;;;;;;;6.10;100.00;101139.30;103930;1291;22581;-58
2024/02/20 05:59:02;;;;;;;9.30;4.10;;;;;;;6.09;100.00;101141.52;103813;1310;22582;-60
2024/02/20 06:01:28;;;;;;;14.10;4.20;;;;;;;6.09;100.00;101145.98;107263;1292;22485;-60
2024/02/20 06:03:53;;;;;;;9.90;4.70;;;;;;;6.09;100.00;101148.54;107299;1301;22359;-56
2024/02/20 06:06:20;;;;;;;12.10;4.30;;;;;;;6.09;100.00;101147.52;107354;1292;22486;-58
2024/02/20 06:08:46;;;;;;;10.10;4.30;;;;;;;6.12;100.00;101153.37;107373;1306;22318;-59
2024/02/20 06:11:16;;;;;;;9.70;4.30;;;;;;;6.12;100.00;101152.86;107452;1310;22122;-58
2024/02/20 06:13:42;;;;;;;9.70;4.20;;;;;;;6.14;100.00;101154.41;107313;1310;22295;-60
2024/02/20 06:16:08;;;;;;;12.90;4.30;;;;;;;6.17;100.00;101152.90;107370;1298;22445;-59
2024/02/20 06:18:34;;;;;;;8.10;3.50;;;;;;;6.18;100.00;101154.97;107325;1305;23077;-58
2024/02/20 06:20:59;;;;;;;6.50;3.80;;;;;;;6.19;100.00;101156.86;107320;1302;22692;-59
2024/02/20 06:23:25;;;;;;;13.20;4.20;;;;;;;6.21;100.00;101162.20;107223;1302;22813;-57
2024/02/20 06:25:50;;;;;;;11.70;4.10;;;;;;;6.23;100.00;101159.98;107329;1290;22271;-59
2024/02/20 06:28:18;;;;;;;14.80;4.40;;;;;;;6.26;100.00;101162.04;107380;1304;22323;-59
2024/02/20 06:30:43;;;;;;;11.30;4.20;;;;;;;6.26;100.00;101157.41;107207;1307;22209;-58
2024/02/20 06:33:09;;;;;;;13.00;3.70;;;;;;;6.29;100.00;101158.48;107290;1305;23362;-58
2024/02/20 06:35:35;;;;;;;9.10;3.70;;;;;;;6.30;100.00;101161.91;107357;1310;22505;-57
2024/02/20 06:38:00;;;;;;;9.50;3.80;;;;;;;6.29;100.00;101164.81;107401;1287;22242;-56
2024/02/20 06:40:26;;;;;;;6.30;3.60;;;;;;;6.28;100.00;101168.91;107353;1308;22387;-56
2024/02/20 06:42:52;;;;;;;11.80;3.30;;;;;;;6.28;100.00;101170.11;107135;1310;22468;-57
2024/02/20 06:45:25;;;;;;;6.70;3.90;;;;;;;6.30;100.00;101174.76;107072;1304;23216;-58
2024/02/20 06:47:51;;;;;;;13.00;4.10;;;;;;;6.31;100.00;101176.13;106193;1292;23056;-57
2024/02/20 06:50:17;;;;;;;8.00;3.80;;;;;;;6.31;100.00;101177.85;103799;1304;25326;-57
2024/02/20 06:52:45;;;;;;;11.00;3.90;;;;;;;6.32;100.00;101180.77;103955;1306;22612;-57
2024/02/20 06:55:11;;;;;;;10.80;3.80;;;;;;;6.35;100.00;101178.23;103934;1305;25545;-56
2024/02/20 06:57:39;;;;;;;9.70;4.00;;;;;;;6.35;100.00;101183.71;103889;1292;22582;-57
2024/02/20 07:00:06;;;;;;;11.20;3.50;;;;;;;6.35;100.00;101185.77;103853;1310;22800;-56
2024/02/20 07:02:31;;;;;;;6.90;3.70;;;;;;;6.35;100.00;101186.45;107332;1310;22399;-58
2024/02/20 07:04:57;;;;;;;9.10;3.20;;;;;;;6.34;100.00;101185.25;107264;1305;22379;-57
2024/02/20 07:07:22;;;;;;;9.50;4.50;;;;;;;6.37;100.00;101185.61;106101;1289;24235;-57
2024/02/20 07:09:48;;;;;;;17.60;4.90;;;;;;;6.41;100.00;101187.36;103898;1304;23192;-56
2024/02/20 07:12:14;;;;;;;14.10;5.60;;;;;;;6.47;100.00;101187.77;103876;1305;23376;-58
2024/02/20 07:14:39;;;;;;;9.70;5.40;;;;;;;6.49;100.00;101189.85;103622;1298;22568;-56
2024/02/20 07:17:05;;;;;;;12.00;5.30;;;;;;;6.54;100.00;101192.80;103848;1292;23275;-57
2024/02/20 07:19:30;;;;;;;9.70;5.30;;;;;;;6.55;100.00;101192.98;103829;1310;22614;-57
2024/02/20 07:21:59;;;;;;;10.80;5.30;;;;;;;6.56;100.00;101194.19;103895;1304;24238;-57
2024/02/20 07:24:24;;;;;;;7.30;4.30;;;;;;;6.59;100.00;101196.80;104001;1296;22552;-58
2024/02/20 07:26:50;;;;;;;13.60;5.70;;;;;;;6.63;100.00;101195.30;103897;1290;22549;-55
2024/02/20 07:29:18;;;;;;;10.50;4.70;;;;;;;6.66;100.00;101198.58;103679;1307;22969;-52
2024/02/20 07:31:46;;;;;;;9.30;4.80;;;;;;;6.67;100.00;101194.30;107076;1304;22252;-57
2024/02/20 07:34:12;;;;;;;13.50;5.20;;;;;;;6.71;100.00;101196.40;107347;1310;22233;-57
2024/02/20 07:36:38;;;;;;;16.20;5.90;;;;;;;6.74;100.00;101195.74;107283;1310;22255;-58
2024/02/20 07:39:04;;;;;;;11.10;6.10;;;;;;;6.80;100.00;101194.22;105352;1288;22586;-58
2024/02/20 07:41:30;;;;;;;18.20;6.90;;;;;;;6.85;100.00;101195.98;103909;1305;25388;-57
2024/02/20 07:43:56;;;;;;;23.60;8.50;;;;;;;6.88;100.00;101196.02;103828;1305;22565;-56
2024/02/20 07:46:21;;;;;;;11.20;6.00;;;;;;;6.89;100.00;101198.07;107294;1305;22396;-56
2024/02/20 07:48:47;;;;;;;19.80;8.10;;;;;;;6.92;100.00;101202.21;107299;1292;22251;-56
2024/02/20 07:51:13;;;;;;;13.50;6.70;;;;;;;6.93;100.00;101203.59;107300;1303;22253;-57
2024/02/20 07:53:39;;;;;;;12.40;7.60;;;;;;;6.97;100.00;101204.64;107328;1307;22270;-57
2024/02/20 07:56:08;;;;;;;11.40;6.20;;;;;;;7.01;100.00;101209.66;107089;1307;23269;-57
2024/02/20 07:58:37;;;;;;;16.00;7.20;;;;;;;7.06;100.00;101209.19;107369;1291;22644;-56
2024/02/20 08:01:07;;;;;;;10.30;6.10;;;;;;;7.14;100.00;101207.02;105321;1310;22563;-57
2024/02/20 08:03:32;;;;;;;11.50;5.90;;;;;;;7.21;100.00;101206.04;107121;1307;22259;-55
2024/02/20 08:05:58;;;;;;;10.60;5.30;;;;;;;7.21;100.00;101203.80;107341;1310;22416;-57
2024/02/20 08:08:23;;;;;;;6.70;4.20;;;;;;;7.22;100.00;101205.70;107327;1292;23941;-59
2024/02/20 08:10:49;;;;;;;9.40;4.80;;;;;;;7.23;100.00;101206.91;106571;1304;66500;-57
2024/02/20 08:13:14;;;;;;;10.90;4.60;;;;;;;7.28;100.00;101206.77;103984;1309;22992;-59
2024/02/20 08:15:40;;;;;;;8.60;4.20;;;;;;;7.33;100.00;101207.98;103926;1305;24403;-58
2024/02/20 08:18:05;;;;;;;6.80;4.10;;;;;;;7.35;100.00;101209.37;103755;1289;24304;-59
2024/02/20 08:20:32;;;;;;;5.00;3.30;;;;;;;7.35;100.00;101206.10;103922;1301;25415;-55
2024/02/20 08:22:57;;;;;;;4.00;3.40;;;;;;;7.31;100.00;101205.73;103922;1304;23143;-55
2024/02/20 08:25:23;;;;;;;6.80;4.30;;;;;;;7.27;100.00;101206.23;104050;1310;22678;-56
2024/02/20 08:27:48;;;;;;;4.90;3.40;;;;;;;7.29;100.00;101205.55;103961;1304;22572;-55
2024/02/20 08:30:14;;;;;;;4.10;2.90;;;;;;;7.28;100.00;101204.52;103711;1293;25363;-55
2024/02/20 08:32:44;;;;;;;5.10;4.10;;;;;;;7.31;100.00;101200.60;103958;1295;22577;-55
2024/02/20 08:35:09;;;;;;;9.50;4.10;;;;;;;7.34;100.00;101202.32;103905;1304;24089;-56
2024/02/20 08:37:35;;;;;;;8.40;3.50;;;;;;;7.38;100.00;101202.35;103706;1305;24069;-54
2024/02/20 08:40:01;;;;;;;4.70;3.00;;;;;;;7.41;100.00;101201.01;103908;1292;24008;-56
2024/02/20 08:42:27;;;;;;;6.20;3.10;;;;;;;7.36;100.00;101200.80;103921;1304;26658;-54
2024/02/20 08:44:52;;;;;;;6.30;3.00;;;;;;;7.40;100.00;101203.23;103813;1303;23700;-55
2024/02/20 08:47:18;;;;;;;7.10;3.60;;;;;;;7.43;100.00;101202.39;103929;1304;24305;-55
2024/02/20 08:49:44;;;;;;;5.70;3.00;;;;;;;7.46;100.00;101199.67;103831;1291;22566;-57
2024/02/20 08:52:10;;;;;;;5.30;3.00;;;;;;;7.54;100.00;101200.74;103872;1308;22841;-55
2024/02/20 08:54:35;;;;;;;4.20;3.00;;;;;;;7.63;100.00;101203.20;103896;1304;22573;-54
2024/02/20 08:57:01;;;;;;;3.70;2.50;;;;;;;7.71;100.00;101202.04;103955;1304;22691;-58
2024/02/20 08:59:26;;;;;;;5.30;2.60;;;;;;;7.71;100.00;101199.81;103866;1306;23467;-57
2024/02/20 09:01:51;;;;;;;3.30;2.60;;;;;;;7.69;100.00;101199.79;103830;1294;24352;-54
2024/02/20 09:04:18;;;;;;;4.30;2.60;;;;;;;7.67;100.00;101199.61;103926;1310;27763;-57
2024/02/20 09:06:46;;;;;;;31.90;16.80;;;;;;;7.64;100.00;101200.11;103902;1306;22595;-56
2024/02/20 09:09:12;;;;;;;3.60;2.10;;;;;;;7.63;100.00;101203.89;103804;1289;22580;-55
2024/02/20 09:11:37;;;;;;;4.10;2.20;;;;;;;7.62;100.00;101207.65;103914;1301;23568;-55
2024/02/20 09:14:02;;;;;;;2.80;2.20;;;;;;;7.60;100.00;101209.18;103942;1307;23434;-52
2024/02/20 09:16:28;;;;;;;6.10;2.40;;;;;;;7.60;100.00;101207.98;103863;1298;23054;-56
2024/02/20 09:18:53;;;;;;;2.50;1.80;;;;;;;7.56;100.00;101214.65;103911;1307;22556;-55
2024/02/20 09:21:19;;;;;;;2.30;1.90;;;;;;;7.55;100.00;101214.47;103879;1291;22728;-55
2024/02/20 09:23:44;;;;;;;4.90;2.50;;;;;;;7.52;100.00;101214.80;103884;1292;24241;-55
2024/02/20 09:26:11;;;;;;;4.70;1.80;;;;;;;7.53;100.00;101214.30;103903;1310;25401;-55
2024/02/20 09:28:37;;;;;;;;;;;;;;;7.49;100.00;101219.92;103901;1304;22536;-59
2024/02/20 09:31:03;;;;;;;2.00;1.40;;;;;;;7.46;100.00;101219.39;103858;1292;25405;-54
2024/02/20 09:33:29;;;;;;;2.50;1.40;;;;;;;7.46;100.00;101221.44;103518;1291;24244;-55
2024/02/20 09:35:54;;;;;;;2.40;1.50;;;;;;;7.45;100.00;101226.25;103860;1310;22562;-57
2024/02/20 09:38:20;;;;;;;3.10;1.40;;;;;;;7.46;100.00;101225.73;103907;1305;23117;-57
2024/02/20 09:40:48;;;;;;;3.50;1.40;;;;;;;7.53;100.00;101226.82;103877;1291;22586;-57
2024/02/20 09:43:17;;;;;;;4.20;1.40;;;;;;;7.61;100.00;101227.04;103898;1305;22576;-55
2024/02/20 09:45:44;;;;;;;1.70;1.10;;;;;;;7.72;100.00;101229.34;104661;1304;22691;-56
2024/02/20 09:48:10;;;;;;;1.50;1.10;;;;;;;7.83;100.00;101232.98;103639;1308;23249;-55
2024/02/20 09:50:40;;;;;;;2.30;0.80;;;;;;;7.89;100.00;101233.68;103890;1288;22590;-55
2024/02/20 09:53:07;;;;;;;1.70;1.00;;;;;;;7.88;100.00;101231.96;103887;1297;22699;-55
2024/02/20 09:55:33;;;;;;;1.30;0.70;;;;;;;7.89;100.00;101237.80;103954;1295;22589;-57
2024/02/20 09:57:59;;;;;;;1.00;0.70;;;;;;;7.80;100.00;101232.61;103928;1304;22579;-51
2024/02/20 10:00:25;;;;;;;2.30;0.90;;;;;;;7.79;100.00;101232.63;103899;1304;23953;-55
2024/02/20 10:03:16;;;;;;;1.40;0.90;;;;;;;7.75;100.00;101234.16;107307;1305;22252;-56
2024/02/20 10:05:55;;;;;;;4.10;1.00;;;;;;;7.72;100.00;101238.25;107274;1302;22285;-54
2024/02/20 10:08:25;;;;;;;1.60;0.80;;;;;;;7.68;100.00;101235.31;107206;1305;22277;-56
2024/02/20 10:10:50;;;;;;;1.50;0.90;;;;;;;7.68;100.00;101236.00;104926;1292;25309;-55
2024/02/20 10:13:18;;;;;;;1.70;1.10;;;;;;;7.74;100.00;101237.23;103948;1304;22588;-55
2024/02/20 10:15:45;;;;;;;2.80;1.30;;;;;;;7.80;100.00;101237.94;104777;1310;22564;-55
2024/02/20 10:18:11;;;;;;;259.60;77.60;;;;;;;7.79;100.00;101239.14;103859;1297;22590;-55
2024/02/20 10:20:37;;;;;;;3.10;1.20;;;;;;;7.82;100.00;101238.11;103848;1289;23151;-57
2024/02/20 10:23:05;;;;;;;3.40;1.20;;;;;;;7.94;100.00;101243.83;103958;1304;22685;-56
2024/02/20 10:25:31;;;;;;;1.70;0.90;;;;;;;8.04;100.00;101243.38;107198;1303;23331;-56
2024/02/20 10:27:56;;;;;;;1.40;1.00;;;;;;;8.11;100.00;101245.29;106387;1304;308249;-57
2024/02/20 10:30:22;;;;;;;4.00;1.60;;;;;;;8.07;100.00;101245.44;104000;1289;22575;-56
2024/02/20 10:32:48;;;;;;;1.60;0.90;;;;;;;8.02;100.00;101251.42;103934;1288;25523;-55
2024/02/20 10:35:13;;;;;;;1.50;1.10;;;;;;;7.97;100.00;101254.67;104009;1304;22684;-51
2024/02/20 10:37:39;;;;;;;7.30;1.90;;;;;;;7.99;100.00;101254.67;103728;1298;22563;-56
2024/02/20 10:40:06;;;;;;;3.60;0.90;;;;;;;8.09;100.00;101252.15;103986;1304;25393;-53
2024/02/20 10:42:37;;;;;;;1.20;0.80;;;;;;;8.43;100.00;101247.64;103853;1298;22600;-56
2024/02/20 10:45:08;;;;;;;2.50;1.00;;;;;;;9.06;100.00;101247.55;103977;1295;22585;-54
2024/02/20 10:47:44;;;;;;;0.90;0.70;;;;;;;9.66;100.00;101242.64;107305;1310;22314;-56
2024/02/20 10:50:12;;;;;;;1.00;0.60;;;;;;;10.28;100.00;101242.27;107312;1304;22237;-56
2024/02/20 10:52:39;;;;;;;0.90;0.50;;;;;;;10.90;100.00;101243.59;107285;1291;23341;-56
2024/02/20 10:55:14;;;;;;;;;;;;;;;11.18;99.86;101242.16;107379;1297;22496;-55
2024/02/20 10:58:00;;;;;;;1.00;0.80;;;;;;;11.23;99.93;101244.54;107147;1297;22408;-55
2024/02/20 11:00:27;;;;;;;0.80;0.60;;;;;;;11.04;98.52;101244.17;107417;1310;22150;-54
2024/02/20 11:02:54;;;;;;;3.70;3.50;;;;;;;10.66;97.45;101244.98;105403;1288;22576;-54
2024/02/20 11:05:20;;;;;;;1.30;0.50;;;;;;;10.49;98.66;101241.80;107382;1294;22380;-55
2024/02/20 11:07:46;;;;;;;1.80;0.60;;;;;;;10.55;99.88;101244.01;107285;1304;23093;-57
2024/02/20 11:10:23;;;;;;;10.40;4.40;;;;;;;10.56;99.10;101240.22;107212;1302;22440;-55
2024/02/20 11:12:51;;;;;;;0.70;0.60;;;;;;;10.26;96.06;101237.45;107360;1291;22254;-57